sensor_id;sensor_type;location;lat;lon;timestamp;temperature;humidity
70830;SHT30;58451;51.550;7.208;2022-08-19T00:02:02;18.26;73.03
70830;SHT30;58451;51.550;7.208;2022-08-19T00:04:31;18.24;73.10
70830;SHT30;58451;51.550;7.208;2022-08-19T00:07:04;18.20;73.33
70830;SHT30;58451;51.550;7.208;2022-08-19T00:09:32;18.18;73.53
70830;SHT30;58451;51.550;7.208;2022-08-19T00:12:00;18.15;73.65
70830;SHT30;58451;51.550;7.208;2022-08-19T00:14:28;18.13;73.69
70830;SHT30;58451;51.550;7.208;2022-08-19T00:16:58;18.11;73.79
70830;SHT30;58451;51.550;7.208;2022-08-19T00:19:26;18.08;73.90
70830;SHT30;58451;51.550;7.208;2022-08-19T00:21:53;18.06;73.93
70830;SHT30;58451;51.550;7.208;2022-08-19T00:24:21;18.04;74.11
70830;SHT30;58451;51.550;7.208;2022-08-19T00:26:49;18.02;74.22
70830;SHT30;58451;51.550;7.208;2022-08-19T00:29:17;17.99;74.27
70830;SHT30;58451;51.550;7.208;2022-08-19T00:31:47;17.97;74.38
70830;SHT30;58451;51.550;7.208;2022-08-19T00:34:16;17.95;74.51
70830;SHT30;58451;51.550;7.208;2022-08-19T00:36:43;17.92;74.68
70830;SHT30;58451;51.550;7.208;2022-08-19T00:39:10;17.90;74.69
70830;SHT30;58451;51.550;7.208;2022-08-19T00:41:39;17.87;74.75
70830;SHT30;58451;51.550;7.208;2022-08-19T00:44:10;17.85;74.95
70830;SHT30;58451;51.550;7.208;2022-08-19T00:46:43;17.83;75.33
70830;SHT30;58451;51.550;7.208;2022-08-19T00:49:37;17.81;75.38
70830;SHT30;58451;51.550;7.208;2022-08-19T00:52:27;17.79;75.37
70830;SHT30;58451;51.550;7.208;2022-08-19T00:55:02;17.76;75.36
70830;SHT30;58451;51.550;7.208;2022-08-19T00:57:36;17.74;75.45
70830;SHT30;58451;51.550;7.208;2022-08-19T01:00:09;17.72;75.57
70830;SHT30;58451;51.550;7.208;2022-08-19T01:02:41;17.70;75.66
70830;SHT30;58451;51.550;7.208;2022-08-19T01:05:10;17.68;75.74
70830;SHT30;58451;51.550;7.208;2022-08-19T01:07:42;17.66;75.83
70830;SHT30;58451;51.550;7.208;2022-08-19T01:10:11;17.64;75.97
70830;SHT30;58451;51.550;7.208;2022-08-19T01:12:45;17.63;76.07
70830;SHT30;58451;51.550;7.208;2022-08-19T01:15:18;17.61;76.17
70830;SHT30;58451;51.550;7.208;2022-08-19T01:17:51;17.59;76.35
70830;SHT30;58451;51.550;7.208;2022-08-19T01:20:22;17.58;77.52
70830;SHT30;58451;51.550;7.208;2022-08-19T01:22:52;17.55;77.60
70830;SHT30;58451;51.550;7.208;2022-08-19T01:25:28;17.54;77.20
70830;SHT30;58451;51.550;7.208;2022-08-19T01:28:04;17.52;77.18
70830;SHT30;58451;51.550;7.208;2022-08-19T01:30:36;17.51;77.45
70830;SHT30;58451;51.550;7.208;2022-08-19T01:33:04;17.49;77.23
70830;SHT30;58451;51.550;7.208;2022-08-19T01:35:31;17.46;77.13
70830;SHT30;58451;51.550;7.208;2022-08-19T01:38:05;17.45;77.09
70830;SHT30;58451;51.550;7.208;2022-08-19T01:40:38;17.42;77.10
70830;SHT30;58451;51.550;7.208;2022-08-19T01:43:06;17.41;77.21
70830;SHT30;58451;51.550;7.208;2022-08-19T01:45:33;17.39;77.38
70830;SHT30;58451;51.550;7.208;2022-08-19T01:48:02;17.38;77.68
70830;SHT30;58451;51.550;7.208;2022-08-19T01:50:31;17.36;77.88
70830;SHT30;58451;51.550;7.208;2022-08-19T01:53:02;17.34;77.80
70830;SHT30;58451;51.550;7.208;2022-08-19T01:55:34;17.32;77.73
70830;SHT30;58451;51.550;7.208;2022-08-19T01:58:07;17.30;77.79
70830;SHT30;58451;51.550;7.208;2022-08-19T02:00:58;17.27;77.86
70830;SHT30;58451;51.550;7.208;2022-08-19T02:03:26;17.25;77.91
70830;SHT30;58451;51.550;7.208;2022-08-19T02:05:53;17.23;77.96
70830;SHT30;58451;51.550;7.208;2022-08-19T02:08:27;17.22;77.98
70830;SHT30;58451;51.550;7.208;2022-08-19T02:10:56;17.20;78.09
70830;SHT30;58451;51.550;7.208;2022-08-19T02:13:23;17.18;78.19
70830;SHT30;58451;51.550;7.208;2022-08-19T02:15:52;17.16;78.21
70830;SHT30;58451;51.550;7.208;2022-08-19T02:18:19;17.13;78.21
70830;SHT30;58451;51.550;7.208;2022-08-19T02:20:53;17.12;78.26
70830;SHT30;58451;51.550;7.208;2022-08-19T02:23:20;17.10;78.36
70830;SHT30;58451;51.550;7.208;2022-08-19T02:25:47;17.08;79.57
70830;SHT30;58451;51.550;7.208;2022-08-19T02:28:15;17.07;79.57
70830;SHT30;58451;51.550;7.208;2022-08-19T02:30:44;17.04;79.11
70830;SHT30;58451;51.550;7.208;2022-08-19T02:33:13;17.02;79.00
70830;SHT30;58451;51.550;7.208;2022-08-19T02:35:41;17.00;78.98
70830;SHT30;58451;51.550;7.208;2022-08-19T02:38:13;16.98;78.91
70830;SHT30;58451;51.550;7.208;2022-08-19T02:40:55;16.97;78.89
70830;SHT30;58451;51.550;7.208;2022-08-19T02:43:33;16.96;78.79
70830;SHT30;58451;51.550;7.208;2022-08-19T02:48:50;16.94;78.80
70830;SHT30;58451;51.550;7.208;2022-08-19T02:51:21;16.93;78.92
70830;SHT30;58451;51.550;7.208;2022-08-19T02:53:54;16.92;79.18
70830;SHT30;58451;51.550;7.208;2022-08-19T02:56:21;16.93;79.58
70830;SHT30;58451;51.550;7.208;2022-08-19T02:58:50;16.93;80.69
70830;SHT30;58451;51.550;7.208;2022-08-19T03:01:22;16.93;80.28
70830;SHT30;58451;51.550;7.208;2022-08-19T03:04:00;16.92;79.85
70830;SHT30;58451;51.550;7.208;2022-08-19T03:06:30;16.91;79.69
70830;SHT30;58451;51.550;7.208;2022-08-19T03:08:58;16.91;79.65
70830;SHT30;58451;51.550;7.208;2022-08-19T03:11:26;16.91;79.56
70830;SHT30;58451;51.550;7.208;2022-08-19T03:13:56;16.89;79.54
70830;SHT30;58451;51.550;7.208;2022-08-19T03:16:27;16.88;79.54
70830;SHT30;58451;51.550;7.208;2022-08-19T03:18:59;16.88;79.53
70830;SHT30;58451;51.550;7.208;2022-08-19T03:21:31;16.86;79.56
70830;SHT30;58451;51.550;7.208;2022-08-19T03:24:04;16.85;79.59
70830;SHT30;58451;51.550;7.208;2022-08-19T03:26:38;16.85;79.64
70830;SHT30;58451;51.550;7.208;2022-08-19T03:29:12;16.84;79.64
70830;SHT30;58451;51.550;7.208;2022-08-19T03:31:40;16.83;79.67
70830;SHT30;58451;51.550;7.208;2022-08-19T03:34:23;16.83;79.71
70830;SHT30;58451;51.550;7.208;2022-08-19T03:36:54;16.82;79.74
70830;SHT30;58451;51.550;7.208;2022-08-19T03:39:24;16.82;79.85
70830;SHT30;58451;51.550;7.208;2022-08-19T03:41:53;16.81;79.95
70830;SHT30;58451;51.550;7.208;2022-08-19T03:44:46;16.81;79.99
70830;SHT30;58451;51.550;7.208;2022-08-19T03:47:13;16.82;80.09
70830;SHT30;58451;51.550;7.208;2022-08-19T03:49:43;16.81;80.09
70830;SHT30;58451;51.550;7.208;2022-08-19T03:52:11;16.80;80.17
70830;SHT30;58451;51.550;7.208;2022-08-19T03:54:38;16.80;80.15
70830;SHT30;58451;51.550;7.208;2022-08-19T03:57:06;16.79;80.19
70830;SHT30;58451;51.550;7.208;2022-08-19T03:59:35;16.78;80.25
70830;SHT30;58451;51.550;7.208;2022-08-19T04:02:11;16.77;80.37
70830;SHT30;58451;51.550;7.208;2022-08-19T04:04:40;16.77;80.46
70830;SHT30;58451;51.550;7.208;2022-08-19T04:07:10;16.77;80.60
70830;SHT30;58451;51.550;7.208;2022-08-19T04:09:48;16.75;80.54
70830;SHT30;58451;51.550;7.208;2022-08-19T04:12:15;16.76;81.97
70830;SHT30;58451;51.550;7.208;2022-08-19T04:14:42;16.76;82.47
70830;SHT30;58451;51.550;7.208;2022-08-19T04:17:09;16.74;81.63
70830;SHT30;58451;51.550;7.208;2022-08-19T04:19:35;16.75;81.39
70830;SHT30;58451;51.550;7.208;2022-08-19T04:22:03;16.74;81.22
70830;SHT30;58451;51.550;7.208;2022-08-19T04:24:31;16.73;81.09
70830;SHT30;58451;51.550;7.208;2022-08-19T04:27:02;16.74;81.05
70830;SHT30;58451;51.550;7.208;2022-08-19T04:29:29;16.74;81.05
70830;SHT30;58451;51.550;7.208;2022-08-19T04:31:56;16.75;81.06
70830;SHT30;58451;51.550;7.208;2022-08-19T04:34:34;16.78;81.39
70830;SHT30;58451;51.550;7.208;2022-08-19T04:37:23;16.81;81.38
70830;SHT30;58451;51.550;7.208;2022-08-19T04:39:50;16.84;81.73
70830;SHT30;58451;51.550;7.208;2022-08-19T04:42:36;16.87;81.47
70830;SHT30;58451;51.550;7.208;2022-08-19T04:45:07;16.91;81.30
70830;SHT30;58451;51.550;7.208;2022-08-19T04:47:41;16.97;81.28
70830;SHT30;58451;51.550;7.208;2022-08-19T04:50:24;17.05;81.20
70830;SHT30;58451;51.550;7.208;2022-08-19T04:52:53;17.11;81.14
70830;SHT30;58451;51.550;7.208;2022-08-19T04:55:22;17.18;81.12
70830;SHT30;58451;51.550;7.208;2022-08-19T04:57:52;17.26;81.09
70830;SHT30;58451;51.550;7.208;2022-08-19T05:00:20;17.33;81.13
70830;SHT30;58451;51.550;7.208;2022-08-19T05:02:47;17.41;81.02
70830;SHT30;58451;51.550;7.208;2022-08-19T05:05:15;17.52;80.90
70830;SHT30;58451;51.550;7.208;2022-08-19T05:07:42;17.63;80.76
70830;SHT30;58451;51.550;7.208;2022-08-19T05:10:09;17.75;80.62
70830;SHT30;58451;51.550;7.208;2022-08-19T05:12:36;17.87;80.53
70830;SHT30;58451;51.550;7.208;2022-08-19T05:15:04;17.96;80.39
70830;SHT30;58451;51.550;7.208;2022-08-19T05:17:34;18.04;80.27
70830;SHT30;58451;51.550;7.208;2022-08-19T05:20:06;18.13;80.11
70830;SHT30;58451;51.550;7.208;2022-08-19T05:22:54;18.24;79.91
70830;SHT30;58451;51.550;7.208;2022-08-19T05:25:21;18.33;79.76
70830;SHT30;58451;51.550;7.208;2022-08-19T05:27:49;18.43;79.66
70830;SHT30;58451;51.550;7.208;2022-08-19T05:30:16;18.56;79.58
70830;SHT30;58451;51.550;7.208;2022-08-19T05:33:04;18.69;79.34
70830;SHT30;58451;51.550;7.208;2022-08-19T05:35:31;18.80;79.26
70830;SHT30;58451;51.550;7.208;2022-08-19T05:38:00;18.94;78.98
70830;SHT30;58451;51.550;7.208;2022-08-19T05:40:27;19.10;78.66
70830;SHT30;58451;51.550;7.208;2022-08-19T05:42:54;19.22;78.38
70830;SHT30;58451;51.550;7.208;2022-08-19T05:45:22;19.36;78.12
70830;SHT30;58451;51.550;7.208;2022-08-19T05:47:49;19.57;77.86
70830;SHT30;58451;51.550;7.208;2022-08-19T05:50:15;19.82;77.24
70830;SHT30;58451;51.550;7.208;2022-08-19T05:52:43;20.04;76.79
70830;SHT30;58451;51.550;7.208;2022-08-19T05:55:16;20.28;76.09
70830;SHT30;58451;51.550;7.208;2022-08-19T05:57:43;20.53;75.42
70830;SHT30;58451;51.550;7.208;2022-08-19T06:00:10;20.75;74.31
70830;SHT30;58451;51.550;7.208;2022-08-19T06:02:38;20.86;73.89
70830;SHT30;58451;51.550;7.208;2022-08-19T06:05:06;21.01;73.91
70830;SHT30;58451;51.550;7.208;2022-08-19T06:07:36;21.13;73.21
70830;SHT30;58451;51.550;7.208;2022-08-19T06:10:05;21.16;73.07
70830;SHT30;58451;51.550;7.208;2022-08-19T06:12:36;21.19;72.76
70830;SHT30;58451;51.550;7.208;2022-08-19T06:15:09;21.20;72.85
70830;SHT30;58451;51.550;7.208;2022-08-19T06:17:39;21.22;72.61
70830;SHT30;58451;51.550;7.208;2022-08-19T06:20:08;21.26;72.34
70830;SHT30;58451;51.550;7.208;2022-08-19T06:22:43;21.29;72.58
70830;SHT30;58451;51.550;7.208;2022-08-19T06:25:15;21.34;72.25
70830;SHT30;58451;51.550;7.208;2022-08-19T06:27:43;21.38;71.83
70830;SHT30;58451;51.550;7.208;2022-08-19T06:30:31;21.40;71.68
70830;SHT30;58451;51.550;7.208;2022-08-19T06:32:58;21.51;71.94
70830;SHT30;58451;51.550;7.208;2022-08-19T06:35:25;21.66;71.69
70830;SHT30;58451;51.550;7.208;2022-08-19T06:37:53;21.77;70.85
70830;SHT30;58451;51.550;7.208;2022-08-19T06:40:20;21.81;70.38
70830;SHT30;58451;51.550;7.208;2022-08-19T06:42:48;21.86;70.38
70830;SHT30;58451;51.550;7.208;2022-08-19T06:45:20;21.87;69.62
70830;SHT30;58451;51.550;7.208;2022-08-19T06:47:50;21.79;69.99
70830;SHT30;58451;51.550;7.208;2022-08-19T06:50:20;21.81;70.09
70830;SHT30;58451;51.550;7.208;2022-08-19T06:52:51;21.89;69.92
70830;SHT30;58451;51.550;7.208;2022-08-19T06:55:19;21.99;69.51
70830;SHT30;58451;51.550;7.208;2022-08-19T06:57:46;22.01;69.37
70830;SHT30;58451;51.550;7.208;2022-08-19T07:00:14;22.07;69.27
70830;SHT30;58451;51.550;7.208;2022-08-19T07:02:42;22.07;69.15
70830;SHT30;58451;51.550;7.208;2022-08-19T07:05:21;22.05;69.39
70830;SHT30;58451;51.550;7.208;2022-08-19T07:07:48;22.03;69.65
70830;SHT30;58451;51.550;7.208;2022-08-19T07:10:16;22.04;69.66
70830;SHT30;58451;51.550;7.208;2022-08-19T07:12:44;22.04;69.44
70830;SHT30;58451;51.550;7.208;2022-08-19T07:15:11;22.02;69.53
70830;SHT30;58451;51.550;7.208;2022-08-19T07:17:39;22.04;69.56
70830;SHT30;58451;51.550;7.208;2022-08-19T07:20:07;22.04;69.59
70830;SHT30;58451;51.550;7.208;2022-08-19T07:22:37;22.04;69.46
70830;SHT30;58451;51.550;7.208;2022-08-19T07:25:05;21.99;69.47
70830;SHT30;58451;51.550;7.208;2022-08-19T07:27:35;21.95;69.56
70830;SHT30;58451;51.550;7.208;2022-08-19T07:30:05;21.93;69.72
70830;SHT30;58451;51.550;7.208;2022-08-19T07:32:37;21.91;69.81
70830;SHT30;58451;51.550;7.208;2022-08-19T07:35:05;21.93;69.71
70830;SHT30;58451;51.550;7.208;2022-08-19T07:37:33;21.94;69.67
70830;SHT30;58451;51.550;7.208;2022-08-19T07:40:02;22.00;69.64
70830;SHT30;58451;51.550;7.208;2022-08-19T07:42:32;22.10;69.47
70830;SHT30;58451;51.550;7.208;2022-08-19T07:44:59;22.22;69.29
70830;SHT30;58451;51.550;7.208;2022-08-19T07:47:26;22.37;69.17
70830;SHT30;58451;51.550;7.208;2022-08-19T07:50:13;22.58;68.44
70830;SHT30;58451;51.550;7.208;2022-08-19T07:52:41;22.71;68.31
70830;SHT30;58451;51.550;7.208;2022-08-19T07:55:15;22.88;67.91
70830;SHT30;58451;51.550;7.208;2022-08-19T07:58:05;23.02;67.87
70830;SHT30;58451;51.550;7.208;2022-08-19T08:00:32;23.17;67.65
70830;SHT30;58451;51.550;7.208;2022-08-19T08:03:01;23.32;66.96
70830;SHT30;58451;51.550;7.208;2022-08-19T08:05:28;23.44;66.03
70830;SHT30;58451;51.550;7.208;2022-08-19T08:08:14;23.50;65.72
70830;SHT30;58451;51.550;7.208;2022-08-19T08:11:14;23.63;65.49
70830;SHT30;58451;51.550;7.208;2022-08-19T08:13:46;23.82;64.92
70830;SHT30;58451;51.550;7.208;2022-08-19T08:16:27;24.02;64.45
70830;SHT30;58451;51.550;7.208;2022-08-19T08:18:56;24.18;64.11
70830;SHT30;58451;51.550;7.208;2022-08-19T08:21:24;24.33;62.99
70830;SHT30;58451;51.550;7.208;2022-08-19T08:23:51;24.40;62.78
70830;SHT30;58451;51.550;7.208;2022-08-19T08:26:21;24.52;62.79
70830;SHT30;58451;51.550;7.208;2022-08-19T08:28:49;24.77;63.22
70830;SHT30;58451;51.550;7.208;2022-08-19T08:31:16;25.09;62.32
70830;SHT30;58451;51.550;7.208;2022-08-19T08:33:45;25.19;60.75
70830;SHT30;58451;51.550;7.208;2022-08-19T08:36:13;25.31;60.06
70830;SHT30;58451;51.550;7.208;2022-08-19T08:38:42;25.14;60.48
70830;SHT30;58451;51.550;7.208;2022-08-19T08:44:04;25.24;60.86
70830;SHT30;58451;51.550;7.208;2022-08-19T08:49:41;25.46;59.69
70830;SHT30;58451;51.550;7.208;2022-08-19T08:52:50;25.65;60.13
70830;SHT30;58451;51.550;7.208;2022-08-19T08:55:15;26.00;58.44
70830;SHT30;58451;51.550;7.208;2022-08-19T08:58:06;26.25;58.24
70830;SHT30;58451;51.550;7.208;2022-08-19T09:00:47;26.57;57.24
70830;SHT30;58451;51.550;7.208;2022-08-19T09:03:20;26.82;56.25
70830;SHT30;58451;51.550;7.208;2022-08-19T09:06:04;26.83;56.01
70830;SHT30;58451;51.550;7.208;2022-08-19T09:08:44;27.01;54.94
70830;SHT30;58451;51.550;7.208;2022-08-19T09:14:36;27.42;53.41
70830;SHT30;58451;51.550;7.208;2022-08-19T09:17:17;27.53;53.92
70830;SHT30;58451;51.550;7.208;2022-08-19T09:19:56;27.57;52.48
70830;SHT30;58451;51.550;7.208;2022-08-19T09:22:35;27.49;51.41
70830;SHT30;58451;51.550;7.208;2022-08-19T09:25:04;27.29;50.76
70830;SHT30;58451;51.550;7.208;2022-08-19T09:27:36;27.20;51.53
70830;SHT30;58451;51.550;7.208;2022-08-19T09:30:10;27.19;50.98
70830;SHT30;58451;51.550;7.208;2022-08-19T09:32:45;27.08;51.42
70830;SHT30;58451;51.550;7.208;2022-08-19T09:35:18;27.05;51.69
70830;SHT30;58451;51.550;7.208;2022-08-19T09:37:53;26.96;51.16
70830;SHT30;58451;51.550;7.208;2022-08-19T09:40:25;26.88;51.44
70830;SHT30;58451;51.550;7.208;2022-08-19T09:42:56;26.96;51.42
70830;SHT30;58451;51.550;7.208;2022-08-19T09:45:38;27.00;51.02
70830;SHT30;58451;51.550;7.208;2022-08-19T09:48:05;27.14;51.17
70830;SHT30;58451;51.550;7.208;2022-08-19T09:50:32;27.15;50.37
70830;SHT30;58451;51.550;7.208;2022-08-19T09:53:01;26.96;50.36
70830;SHT30;58451;51.550;7.208;2022-08-19T09:55:28;26.98;50.70
70830;SHT30;58451;51.550;7.208;2022-08-19T09:57:58;27.21;50.36
70830;SHT30;58451;51.550;7.208;2022-08-19T10:00:29;27.31;49.17
70830;SHT30;58451;51.550;7.208;2022-08-19T10:02:57;27.16;48.85
70830;SHT30;58451;51.550;7.208;2022-08-19T10:05:24;27.07;49.51
70830;SHT30;58451;51.550;7.208;2022-08-19T10:08:14;27.04;49.98
70830;SHT30;58451;51.550;7.208;2022-08-19T10:10:49;27.04;49.53
70830;SHT30;58451;51.550;7.208;2022-08-19T10:13:18;26.94;49.75
70830;SHT30;58451;51.550;7.208;2022-08-19T10:15:52;27.03;49.93
70830;SHT30;58451;51.550;7.208;2022-08-19T10:18:22;27.32;49.15
70830;SHT30;58451;51.550;7.208;2022-08-19T10:20:51;27.45;48.38
70830;SHT30;58451;51.550;7.208;2022-08-19T10:23:28;27.52;48.24
70830;SHT30;58451;51.550;7.208;2022-08-19T10:25:59;27.72;47.79
70830;SHT30;58451;51.550;7.208;2022-08-19T10:28:27;27.85;47.65
70830;SHT30;58451;51.550;7.208;2022-08-19T10:30:55;28.07;47.96
70830;SHT30;58451;51.550;7.208;2022-08-19T10:33:22;28.34;46.90
70830;SHT30;58451;51.550;7.208;2022-08-19T10:36:13;28.39;46.21
70830;SHT30;58451;51.550;7.208;2022-08-19T10:38:50;28.35;45.88
70830;SHT30;58451;51.550;7.208;2022-08-19T10:41:31;28.21;45.67
70830;SHT30;58451;51.550;7.208;2022-08-19T10:44:07;28.17;45.31
70830;SHT30;58451;51.550;7.208;2022-08-19T10:46:40;28.05;45.10
70830;SHT30;58451;51.550;7.208;2022-08-19T10:49:15;28.00;45.33
70830;SHT30;58451;51.550;7.208;2022-08-19T10:51:42;28.13;45.36
70830;SHT30;58451;51.550;7.208;2022-08-19T10:54:28;28.36;45.54
70830;SHT30;58451;51.550;7.208;2022-08-19T10:57:14;28.58;44.10
70830;SHT30;58451;51.550;7.208;2022-08-19T10:59:41;28.82;43.75
70830;SHT30;58451;51.550;7.208;2022-08-19T11:02:09;28.83;43.21
70830;SHT30;58451;51.550;7.208;2022-08-19T11:04:39;28.71;43.17
70830;SHT30;58451;51.550;7.208;2022-08-19T11:07:07;28.58;42.72
70830;SHT30;58451;51.550;7.208;2022-08-19T11:09:39;28.36;42.88
70830;SHT30;58451;51.550;7.208;2022-08-19T11:12:08;28.19;43.34
70830;SHT30;58451;51.550;7.208;2022-08-19T11:14:38;28.08;44.02
70830;SHT30;58451;51.550;7.208;2022-08-19T11:17:06;28.01;43.64
70830;SHT30;58451;51.550;7.208;2022-08-19T11:19:33;28.08;43.49
70830;SHT30;58451;51.550;7.208;2022-08-19T11:22:01;28.16;43.76
70830;SHT30;58451;51.550;7.208;2022-08-19T11:24:30;28.26;44.22
70830;SHT30;58451;51.550;7.208;2022-08-19T11:27:00;28.24;44.37
70830;SHT30;58451;51.550;7.208;2022-08-19T11:29:32;28.04;45.10
70830;SHT30;58451;51.550;7.208;2022-08-19T11:32:03;27.93;45.42
70830;SHT30;58451;51.550;7.208;2022-08-19T11:34:36;27.91;45.54
70830;SHT30;58451;51.550;7.208;2022-08-19T11:37:03;27.94;44.95
70830;SHT30;58451;51.550;7.208;2022-08-19T11:39:32;27.89;44.67
70830;SHT30;58451;51.550;7.208;2022-08-19T11:42:02;27.98;44.70
70830;SHT30;58451;51.550;7.208;2022-08-19T11:44:51;28.11;44.41
70830;SHT30;58451;51.550;7.208;2022-08-19T11:47:19;28.18;44.19
70830;SHT30;58451;51.550;7.208;2022-08-19T11:49:46;28.17;44.41
70830;SHT30;58451;51.550;7.208;2022-08-19T11:52:13;28.19;44.52
70830;SHT30;58451;51.550;7.208;2022-08-19T11:54:40;28.04;44.53
70830;SHT30;58451;51.550;7.208;2022-08-19T11:57:07;27.85;44.96
70830;SHT30;58451;51.550;7.208;2022-08-19T11:59:34;27.87;44.92
70830;SHT30;58451;51.550;7.208;2022-08-19T12:02:01;27.97;44.90
70830;SHT30;58451;51.550;7.208;2022-08-19T12:04:28;28.14;44.60
70830;SHT30;58451;51.550;7.208;2022-08-19T12:06:54;28.26;44.11
70830;SHT30;58451;51.550;7.208;2022-08-19T12:09:21;28.24;43.97
70830;SHT30;58451;51.550;7.208;2022-08-19T12:11:48;28.30;43.76
70830;SHT30;58451;51.550;7.208;2022-08-19T12:14:17;28.43;43.41
70830;SHT30;58451;51.550;7.208;2022-08-19T12:16:45;28.56;42.42
70830;SHT30;58451;51.550;7.208;2022-08-19T12:19:17;28.58;42.06
70830;SHT30;58451;51.550;7.208;2022-08-19T12:21:48;28.73;42.07
70830;SHT30;58451;51.550;7.208;2022-08-19T12:24:16;28.98;41.57
70830;SHT30;58451;51.550;7.208;2022-08-19T12:26:49;29.03;41.18
70830;SHT30;58451;51.550;7.208;2022-08-19T12:29:19;29.09;40.54
70830;SHT30;58451;51.550;7.208;2022-08-19T12:31:49;29.10;40.15
70830;SHT30;58451;51.550;7.208;2022-08-19T12:34:17;29.07;40.10
70830;SHT30;58451;51.550;7.208;2022-08-19T12:36:46;29.05;40.09
70830;SHT30;58451;51.550;7.208;2022-08-19T12:39:15;29.11;40.76
70830;SHT30;58451;51.550;7.208;2022-08-19T12:41:42;29.22;40.91
70830;SHT30;58451;51.550;7.208;2022-08-19T12:44:20;29.34;40.79
70830;SHT30;58451;51.550;7.208;2022-08-19T12:46:57;29.44;40.68
70830;SHT30;58451;51.550;7.208;2022-08-19T12:49:27;29.36;40.02
70830;SHT30;58451;51.550;7.208;2022-08-19T12:52:15;29.29;40.28
70830;SHT30;58451;51.550;7.208;2022-08-19T12:54:49;29.49;40.20
70830;SHT30;58451;51.550;7.208;2022-08-19T12:57:19;30.03;39.39
70830;SHT30;58451;51.550;7.208;2022-08-19T12:59:51;30.36;36.69
70830;SHT30;58451;51.550;7.208;2022-08-19T13:02:20;30.36;36.85
70830;SHT30;58451;51.550;7.208;2022-08-19T13:04:47;30.42;36.80
70830;SHT30;58451;51.550;7.208;2022-08-19T13:07:14;30.49;36.94
70830;SHT30;58451;51.550;7.208;2022-08-19T13:09:41;30.56;36.67
70830;SHT30;58451;51.550;7.208;2022-08-19T13:12:08;30.65;36.61
70830;SHT30;58451;51.550;7.208;2022-08-19T13:14:39;30.64;36.83
70830;SHT30;58451;51.550;7.208;2022-08-19T13:17:07;30.80;36.92
70830;SHT30;58451;51.550;7.208;2022-08-19T13:19:36;30.88;35.70
70830;SHT30;58451;51.550;7.208;2022-08-19T13:22:03;30.63;36.04
70830;SHT30;58451;51.550;7.208;2022-08-19T13:24:40;30.58;36.33
70830;SHT30;58451;51.550;7.208;2022-08-19T13:27:12;30.45;36.63
70830;SHT30;58451;51.550;7.208;2022-08-19T13:29:40;30.29;37.35
70830;SHT30;58451;51.550;7.208;2022-08-19T13:32:28;30.41;37.54
70830;SHT30;58451;51.550;7.208;2022-08-19T13:35:15;30.47;37.17
70830;SHT30;58451;51.550;7.208;2022-08-19T13:37:43;30.43;36.73
70830;SHT30;58451;51.550;7.208;2022-08-19T13:42:45;30.19;36.54
70830;SHT30;58451;51.550;7.208;2022-08-19T13:45:17;29.91;36.82
70830;SHT30;58451;51.550;7.208;2022-08-19T13:47:49;29.70;36.76
70830;SHT30;58451;51.550;7.208;2022-08-19T13:50:26;29.66;36.97
70830;SHT30;58451;51.550;7.208;2022-08-19T13:52:57;29.65;37.16
70830;SHT30;58451;51.550;7.208;2022-08-19T13:55:24;29.55;37.00
70830;SHT30;58451;51.550;7.208;2022-08-19T13:57:53;29.48;36.95
70830;SHT30;58451;51.550;7.208;2022-08-19T14:00:25;29.46;36.72
70830;SHT30;58451;51.550;7.208;2022-08-19T14:02:59;30.15;36.43
70830;SHT30;58451;51.550;7.208;2022-08-19T14:05:27;31.09;34.33
70830;SHT30;58451;51.550;7.208;2022-08-19T14:07:57;31.13;33.48
70830;SHT30;58451;51.550;7.208;2022-08-19T14:10:26;31.42;33.34
70830;SHT30;58451;51.550;7.208;2022-08-19T14:12:55;32.18;32.17
70830;SHT30;58451;51.550;7.208;2022-08-19T14:15:24;32.74;31.03
70830;SHT30;58451;51.550;7.208;2022-08-19T14:17:52;33.24;30.07
70830;SHT30;58451;51.550;7.208;2022-08-19T14:20:21;33.50;29.52
70830;SHT30;58451;51.550;7.208;2022-08-19T14:22:52;34.08;29.63
70830;SHT30;58451;51.550;7.208;2022-08-19T14:25:23;34.73;28.48
70830;SHT30;58451;51.550;7.208;2022-08-19T14:27:53;35.03;27.71
70830;SHT30;58451;51.550;7.208;2022-08-19T14:30:24;35.21;27.72
70830;SHT30;58451;51.550;7.208;2022-08-19T14:32:57;35.59;27.87
70830;SHT30;58451;51.550;7.208;2022-08-19T14:35:27;36.26;26.85
70830;SHT30;58451;51.550;7.208;2022-08-19T14:37:56;36.34;26.09
70830;SHT30;58451;51.550;7.208;2022-08-19T14:40:25;36.13;26.58
70830;SHT30;58451;51.550;7.208;2022-08-19T14:42:55;36.06;26.48
70830;SHT30;58451;51.550;7.208;2022-08-19T14:45:31;36.13;26.91
70830;SHT30;58451;51.550;7.208;2022-08-19T14:48:02;36.73;26.61
70830;SHT30;58451;51.550;7.208;2022-08-19T14:50:31;37.21;25.84
70830;SHT30;58451;51.550;7.208;2022-08-19T14:53:00;37.45;25.45
70830;SHT30;58451;51.550;7.208;2022-08-19T14:55:40;38.03;25.21
70830;SHT30;58451;51.550;7.208;2022-08-19T14:58:11;38.28;24.26
70830;SHT30;58451;51.550;7.208;2022-08-19T15:00:55;38.12;24.66
70830;SHT30;58451;51.550;7.208;2022-08-19T15:03:27;38.36;24.26
70830;SHT30;58451;51.550;7.208;2022-08-19T15:05:55;38.14;24.46
70830;SHT30;58451;51.550;7.208;2022-08-19T15:08:24;37.03;25.39
70830;SHT30;58451;51.550;7.208;2022-08-19T15:10:52;36.19;26.45
70830;SHT30;58451;51.550;7.208;2022-08-19T15:13:20;37.44;25.46
70830;SHT30;58451;51.550;7.208;2022-08-19T15:15:47;38.69;25.02
70830;SHT30;58451;51.550;7.208;2022-08-19T15:18:14;39.73;23.59
70830;SHT30;58451;51.550;7.208;2022-08-19T15:20:42;39.90;22.52
70830;SHT30;58451;51.550;7.208;2022-08-19T15:23:12;39.76;23.59
70830;SHT30;58451;51.550;7.208;2022-08-19T15:25:45;40.83;22.12
70830;SHT30;58451;51.550;7.208;2022-08-19T15:28:12;41.33;21.76
70830;SHT30;58451;51.550;7.208;2022-08-19T15:30:39;41.30;21.41
70830;SHT30;58451;51.550;7.208;2022-08-19T15:33:07;41.09;21.22
70830;SHT30;58451;51.550;7.208;2022-08-19T15:35:34;40.79;21.74
70830;SHT30;58451;51.550;7.208;2022-08-19T15:38:01;39.92;22.34
70830;SHT30;58451;51.550;7.208;2022-08-19T15:40:28;37.35;25.13
70830;SHT30;58451;51.550;7.208;2022-08-19T15:42:55;35.63;27.14
70830;SHT30;58451;51.550;7.208;2022-08-19T15:45:24;34.81;28.31
70830;SHT30;58451;51.550;7.208;2022-08-19T15:47:58;33.96;29.52
70830;SHT30;58451;51.550;7.208;2022-08-19T15:50:29;33.34;30.42
70830;SHT30;58451;51.550;7.208;2022-08-19T15:53:02;33.26;30.57
70830;SHT30;58451;51.550;7.208;2022-08-19T15:55:34;34.72;28.89
70830;SHT30;58451;51.550;7.208;2022-08-19T15:58:10;36.47;27.32
70830;SHT30;58451;51.550;7.208;2022-08-19T16:00:59;37.14;26.08
70830;SHT30;58451;51.550;7.208;2022-08-19T16:03:53;35.64;27.80
70830;SHT30;58451;51.550;7.208;2022-08-19T16:06:50;36.06;27.42
70830;SHT30;58451;51.550;7.208;2022-08-19T16:09:21;36.72;27.33
70830;SHT30;58451;51.550;7.208;2022-08-19T16:11:58;38.21;25.90